sensor_id;sensor_type;location;lat;lon;timestamp;P1;durP1;ratioP1;P2;durP2;ratioP2
23498;SDS011;11926;48.120;11.562;2022-11-28T00:01:16;19.90;;;12.43;;
23498;SDS011;11926;48.120;11.562;2022-11-28T00:04:06;20.83;;;12.43;;
23498;SDS011;11926;48.120;11.562;2022-11-28T00:06:54;20.23;;;12.70;;
23498;SDS011;11926;48.120;11.562;2022-11-28T00:09:41;19.95;;;12.80;;
23498;SDS011;11926;48.120;11.562;2022-11-28T00:12:30;21.65;;;12.70;;
23498;SDS011;11926;48.120;11.562;2022-11-28T00:15:17;19.13;;;12.02;;
23498;SDS011;11926;48.120;11.562;2022-11-28T00:18:04;21.38;;;12.35;;
23498;SDS011;11926;48.120;11.562;2022-11-28T00:20:51;20.08;;;11.73;;
23498;SDS011;11926;48.120;11.562;2022-11-28T00:23:44;18.45;;;11.82;;
23498;SDS011;11926;48.120;11.562;2022-11-28T00:26:33;21.10;;;13.25;;
23498;SDS011;11926;48.120;11.562;2022-11-28T00:29:24;18.77;;;12.30;;
23498;SDS011;11926;48.120;11.562;2022-11-28T00:32:11;18.88;;;11.88;;
23498;SDS011;11926;48.120;11.562;2022-11-28T00:34:58;19.27;;;11.75;;
23498;SDS011;11926;48.120;11.562;2022-11-28T00:37:45;20.00;;;12.60;;
23498;SDS011;11926;48.120;11.562;2022-11-28T00:40:32;20.42;;;12.57;;
23498;SDS011;11926;48.120;11.562;2022-11-28T00:43:19;17.95;;;11.05;;
23498;SDS011;11926;48.120;11.562;2022-11-28T00:46:08;17.40;;;11.38;;
23498;SDS011;11926;48.120;11.562;2022-11-28T00:48:56;20.30;;;12.23;;
23498;SDS011;11926;48.120;11.562;2022-11-28T00:51:43;21.20;;;12.55;;
23498;SDS011;11926;48.120;11.562;2022-11-28T00:54:30;20.55;;;12.38;;
23498;SDS011;11926;48.120;11.562;2022-11-28T00:57:18;17.88;;;11.07;;
23498;SDS011;11926;48.120;11.562;2022-11-28T01:00:05;18.60;;;12.60;;
23498;SDS011;11926;48.120;11.562;2022-11-28T01:02:55;21.23;;;12.73;;
23498;SDS011;11926;48.120;11.562;2022-11-28T01:05:42;20.95;;;12.63;;
23498;SDS011;11926;48.120;11.562;2022-11-28T01:08:29;20.27;;;12.15;;
23498;SDS011;11926;48.120;11.562;2022-11-28T01:11:16;23.35;;;12.48;;
23498;SDS011;11926;48.120;11.562;2022-11-28T01:14:03;21.92;;;12.50;;
23498;SDS011;11926;48.120;11.562;2022-11-28T01:16:51;20.38;;;12.60;;
23498;SDS011;11926;48.120;11.562;2022-11-28T01:19:40;21.92;;;12.68;;
23498;SDS011;11926;48.120;11.562;2022-11-28T01:22:28;20.10;;;12.05;;
23498;SDS011;11926;48.120;11.562;2022-11-28T01:25:15;20.65;;;12.48;;
23498;SDS011;11926;48.120;11.562;2022-11-28T01:28:02;20.73;;;12.30;;
23498;SDS011;11926;48.120;11.562;2022-11-28T01:30:49;20.52;;;12.52;;
23498;SDS011;11926;48.120;11.562;2022-11-28T01:33:36;18.75;;;12.52;;
23498;SDS011;11926;48.120;11.562;2022-11-28T01:36:25;19.40;;;11.93;;
23498;SDS011;11926;48.120;11.562;2022-11-28T01:39:13;22.13;;;12.75;;
23498;SDS011;11926;48.120;11.562;2022-11-28T01:42:00;20.75;;;12.93;;
23498;SDS011;11926;48.120;11.562;2022-11-28T01:47:52;21.17;;;13.05;;
23498;SDS011;11926;48.120;11.562;2022-11-28T01:50:43;21.67;;;13.05;;
23498;SDS011;11926;48.120;11.562;2022-11-28T01:53:36;20.95;;;13.02;;
23498;SDS011;11926;48.120;11.562;2022-11-28T01:56:42;23.13;;;12.25;;
23498;SDS011;11926;48.120;11.562;2022-11-28T01:59:36;17.48;;;11.38;;
23498;SDS011;11926;48.120;11.562;2022-11-28T02:02:28;21.42;;;12.52;;
23498;SDS011;11926;48.120;11.562;2022-11-28T02:05:20;20.17;;;12.75;;
23498;SDS011;11926;48.120;11.562;2022-11-28T02:08:07;22.92;;;12.35;;
23498;SDS011;11926;48.120;11.562;2022-11-28T02:11:01;25.20;;;13.18;;
23498;SDS011;11926;48.120;11.562;2022-11-28T02:14:06;20.33;;;12.20;;
23498;SDS011;11926;48.120;11.562;2022-11-28T02:17:03;19.98;;;12.32;;
23498;SDS011;11926;48.120;11.562;2022-11-28T02:20:09;21.80;;;13.02;;
23498;SDS011;11926;48.120;11.562;2022-11-28T02:23:16;20.75;;;12.65;;
23498;SDS011;11926;48.120;11.562;2022-11-28T02:26:19;23.90;;;13.00;;
23498;SDS011;11926;48.120;11.562;2022-11-28T02:29:24;20.75;;;12.65;;
23498;SDS011;11926;48.120;11.562;2022-11-28T02:32:36;19.02;;;12.23;;
23498;SDS011;11926;48.120;11.562;2022-11-28T02:35:43;20.88;;;13.07;;
23498;SDS011;11926;48.120;11.562;2022-11-28T02:38:44;20.52;;;12.43;;
23498;SDS011;11926;48.120;11.562;2022-11-28T02:41:42;23.85;;;13.20;;
23498;SDS011;11926;48.120;11.562;2022-11-28T02:44:33;22.27;;;13.00;;
23498;SDS011;11926;48.120;11.562;2022-11-28T02:47:28;21.48;;;12.90;;
23498;SDS011;11926;48.120;11.562;2022-11-28T02:50:22;24.10;;;13.75;;
23498;SDS011;11926;48.120;11.562;2022-11-28T02:53:15;22.30;;;12.93;;
23498;SDS011;11926;48.120;11.562;2022-11-28T02:58:56;26.55;;;13.00;;
23498;SDS011;11926;48.120;11.562;2022-11-28T03:01:43;21.10;;;12.48;;
23498;SDS011;11926;48.120;11.562;2022-11-28T03:04:31;21.00;;;12.35;;
23498;SDS011;11926;48.120;11.562;2022-11-28T03:07:36;22.08;;;13.57;;
23498;SDS011;11926;48.120;11.562;2022-11-28T03:10:36;19.27;;;12.27;;
23498;SDS011;11926;48.120;11.562;2022-11-28T03:13:32;23.70;;;12.55;;
23498;SDS011;11926;48.120;11.562;2022-11-28T03:16:25;20.90;;;12.30;;
23498;SDS011;11926;48.120;11.562;2022-11-28T03:19:16;25.17;;;13.00;;
23498;SDS011;11926;48.120;11.562;2022-11-28T03:22:08;21.90;;;13.30;;
23498;SDS011;11926;48.120;11.562;2022-11-28T03:25:05;19.00;;;11.85;;
23498;SDS011;11926;48.120;11.562;2022-11-28T03:27:58;20.60;;;12.93;;
23498;SDS011;11926;48.120;11.562;2022-11-28T03:30:54;21.70;;;12.73;;
23498;SDS011;11926;48.120;11.562;2022-11-28T03:33:46;21.48;;;13.00;;
23498;SDS011;11926;48.120;11.562;2022-11-28T03:36:37;21.52;;;13.00;;
23498;SDS011;11926;48.120;11.562;2022-11-28T03:42:20;22.58;;;12.70;;
23498;SDS011;11926;48.120;11.562;2022-11-28T03:45:11;22.35;;;12.55;;
23498;SDS011;11926;48.120;11.562;2022-11-28T03:48:04;22.92;;;13.38;;
23498;SDS011;11926;48.120;11.562;2022-11-28T03:50:57;22.20;;;12.88;;
23498;SDS011;11926;48.120;11.562;2022-11-28T03:53:49;20.77;;;13.02;;
23498;SDS011;11926;48.120;11.562;2022-11-28T03:56:39;24.95;;;13.73;;
23498;SDS011;11926;48.120;11.562;2022-11-28T03:59:36;22.95;;;12.73;;
23498;SDS011;11926;48.120;11.562;2022-11-28T04:02:27;24.10;;;13.20;;
23498;SDS011;11926;48.120;11.562;2022-11-28T04:05:21;21.98;;;14.15;;
23498;SDS011;11926;48.120;11.562;2022-11-28T04:08:13;25.10;;;14.25;;
23498;SDS011;11926;48.120;11.562;2022-11-28T04:11:04;22.52;;;13.23;;
23498;SDS011;11926;48.120;11.562;2022-11-28T04:13:58;22.38;;;13.27;;
23498;SDS011;11926;48.120;11.562;2022-11-28T04:16:53;22.38;;;12.77;;
23498;SDS011;11926;48.120;11.562;2022-11-28T04:19:48;26.50;;;14.02;;
23498;SDS011;11926;48.120;11.562;2022-11-28T04:22:41;23.40;;;13.43;;
23498;SDS011;11926;48.120;11.562;2022-11-28T04:25:31;25.13;;;14.35;;
23498;SDS011;11926;48.120;11.562;2022-11-28T04:28:23;23.35;;;13.07;;
23498;SDS011;11926;48.120;11.562;2022-11-28T04:31:12;23.92;;;13.30;;
23498;SDS011;11926;48.120;11.562;2022-11-28T04:34:05;23.27;;;13.38;;
23498;SDS011;11926;48.120;11.562;2022-11-28T04:36:54;24.02;;;13.50;;
23498;SDS011;11926;48.120;11.562;2022-11-28T04:39:52;23.52;;;13.85;;
23498;SDS011;11926;48.120;11.562;2022-11-28T04:42:42;22.00;;;13.80;;
23498;SDS011;11926;48.120;11.562;2022-11-28T04:45:38;23.27;;;13.02;;
23498;SDS011;11926;48.120;11.562;2022-11-28T04:51:20;23.58;;;12.55;;
23498;SDS011;11926;48.120;11.562;2022-11-28T04:57:03;22.40;;;12.52;;
23498;SDS011;11926;48.120;11.562;2022-11-28T04:59:59;23.02;;;13.40;;
23498;SDS011;11926;48.120;11.562;2022-11-28T05:02:50;21.58;;;12.57;;
23498;SDS011;11926;48.120;11.562;2022-11-28T05:05:41;23.48;;;13.65;;
23498;SDS011;11926;48.120;11.562;2022-11-28T05:08:31;24.65;;;14.10;;
23498;SDS011;11926;48.120;11.562;2022-11-28T05:11:18;25.73;;;14.38;;
23498;SDS011;11926;48.120;11.562;2022-11-28T05:14:05;28.50;;;15.63;;
23498;SDS011;11926;48.120;11.562;2022-11-28T05:16:53;25.65;;;14.68;;
23498;SDS011;11926;48.120;11.562;2022-11-28T05:19:40;24.05;;;13.93;;
23498;SDS011;11926;48.120;11.562;2022-11-28T05:22:27;25.35;;;13.50;;
23498;SDS011;11926;48.120;11.562;2022-11-28T05:25:15;23.73;;;13.50;;
23498;SDS011;11926;48.120;11.562;2022-11-28T05:28:02;25.25;;;14.63;;
23498;SDS011;11926;48.120;11.562;2022-11-28T05:30:55;21.60;;;13.43;;
23498;SDS011;11926;48.120;11.562;2022-11-28T05:36:30;21.38;;;12.88;;
23498;SDS011;11926;48.120;11.562;2022-11-28T05:39:17;23.45;;;13.23;;
23498;SDS011;11926;48.120;11.562;2022-11-28T05:42:07;23.10;;;13.63;;
23498;SDS011;11926;48.120;11.562;2022-11-28T05:44:54;22.83;;;13.73;;
23498;SDS011;11926;48.120;11.562;2022-11-28T05:47:42;23.08;;;13.38;;
23498;SDS011;11926;48.120;11.562;2022-11-28T05:50:30;23.77;;;13.48;;
23498;SDS011;11926;48.120;11.562;2022-11-28T05:53:24;23.73;;;13.60;;
23498;SDS011;11926;48.120;11.562;2022-11-28T05:56:12;21.23;;;13.18;;
23498;SDS011;11926;48.120;11.562;2022-11-28T05:59:04;22.70;;;13.70;;
23498;SDS011;11926;48.120;11.562;2022-11-28T06:01:52;23.38;;;13.88;;
23498;SDS011;11926;48.120;11.562;2022-11-28T06:04:39;21.83;;;12.90;;
23498;SDS011;11926;48.120;11.562;2022-11-28T06:07:27;22.48;;;13.60;;
23498;SDS011;11926;48.120;11.562;2022-11-28T06:10:15;22.95;;;13.63;;
23498;SDS011;11926;48.120;11.562;2022-11-28T06:13:03;25.00;;;13.20;;
23498;SDS011;11926;48.120;11.562;2022-11-28T06:15:52;23.38;;;13.98;;
23498;SDS011;11926;48.120;11.562;2022-11-28T06:18:40;23.67;;;13.95;;
23498;SDS011;11926;48.120;11.562;2022-11-28T06:21:28;21.08;;;13.13;;
23498;SDS011;11926;48.120;11.562;2022-11-28T06:24:17;23.05;;;13.52;;
23498;SDS011;11926;48.120;11.562;2022-11-28T06:27:04;21.30;;;13.25;;
23498;SDS011;11926;48.120;11.562;2022-11-28T06:29:52;27.52;;;15.10;;
23498;SDS011;11926;48.120;11.562;2022-11-28T06:32:40;23.92;;;14.07;;
23498;SDS011;11926;48.120;11.562;2022-11-28T06:35:27;26.52;;;15.15;;
23498;SDS011;11926;48.120;11.562;2022-11-28T06:38:14;26.08;;;14.52;;
23498;SDS011;11926;48.120;11.562;2022-11-28T06:41:03;23.17;;;12.88;;
23498;SDS011;11926;48.120;11.562;2022-11-28T06:43:52;24.70;;;15.77;;
23498;SDS011;11926;48.120;11.562;2022-11-28T06:46:40;21.23;;;13.35;;
23498;SDS011;11926;48.120;11.562;2022-11-28T06:49:30;23.10;;;13.70;;
23498;SDS011;11926;48.120;11.562;2022-11-28T06:52:17;23.40;;;13.68;;
23498;SDS011;11926;48.120;11.562;2022-11-28T06:55:05;23.77;;;14.45;;
23498;SDS011;11926;48.120;11.562;2022-11-28T06:57:52;24.38;;;14.35;;
23498;SDS011;11926;48.120;11.562;2022-11-28T07:00:40;23.25;;;14.18;;
23498;SDS011;11926;48.120;11.562;2022-11-28T07:03:27;25.40;;;14.40;;
23498;SDS011;11926;48.120;11.562;2022-11-28T07:06:17;23.80;;;14.30;;
23498;SDS011;11926;48.120;11.562;2022-11-28T07:09:05;23.92;;;14.00;;
23498;SDS011;11926;48.120;11.562;2022-11-28T07:11:52;21.90;;;13.98;;
23498;SDS011;11926;48.120;11.562;2022-11-28T07:14:40;22.23;;;13.38;;
23498;SDS011;11926;48.120;11.562;2022-11-28T07:17:28;22.58;;;13.70;;
23498;SDS011;11926;48.120;11.562;2022-11-28T07:20:15;24.13;;;14.05;;
23498;SDS011;11926;48.120;11.562;2022-11-28T07:23:04;22.05;;;13.82;;
23498;SDS011;11926;48.120;11.562;2022-11-28T07:25:56;23.17;;;13.68;;
23498;SDS011;11926;48.120;11.562;2022-11-28T07:28:44;24.33;;;14.18;;
23498;SDS011;11926;48.120;11.562;2022-11-28T07:31:33;22.10;;;13.30;;
23498;SDS011;11926;48.120;11.562;2022-11-28T07:34:23;24.02;;;14.55;;
23498;SDS011;11926;48.120;11.562;2022-11-28T07:37:10;23.77;;;13.43;;
23498;SDS011;11926;48.120;11.562;2022-11-28T07:39:59;27.90;;;14.38;;
23498;SDS011;11926;48.120;11.562;2022-11-28T07:42:47;23.30;;;13.48;;
23498;SDS011;11926;48.120;11.562;2022-11-28T07:45:37;25.45;;;14.20;;
23498;SDS011;11926;48.120;11.562;2022-11-28T07:48:46;24.10;;;14.30;;
23498;SDS011;11926;48.120;11.562;2022-11-28T07:51:34;22.40;;;13.90;;
23498;SDS011;11926;48.120;11.562;2022-11-28T07:54:22;26.17;;;14.75;;
23498;SDS011;11926;48.120;11.562;2022-11-28T07:57:11;24.80;;;13.57;;
23498;SDS011;11926;48.120;11.562;2022-11-28T07:59:58;23.40;;;12.85;;
23498;SDS011;11926;48.120;11.562;2022-11-28T08:02:56;20.50;;;12.05;;
23498;SDS011;11926;48.120;11.562;2022-11-28T08:05:44;21.73;;;12.30;;
23498;SDS011;11926;48.120;11.562;2022-11-28T08:08:34;19.73;;;11.63;;
23498;SDS011;11926;48.120;11.562;2022-11-28T08:11:23;18.70;;;11.43;;
23498;SDS011;11926;48.120;11.562;2022-11-28T08:14:14;21.67;;;12.30;;
23498;SDS011;11926;48.120;11.562;2022-11-28T08:17:02;20.88;;;12.40;;
23498;SDS011;11926;48.120;11.562;2022-11-28T08:19:49;17.55;;;10.88;;
23498;SDS011;11926;48.120;11.562;2022-11-28T08:22:37;16.55;;;10.63;;
23498;SDS011;11926;48.120;11.562;2022-11-28T08:25:25;22.75;;;12.60;;
23498;SDS011;11926;48.120;11.562;2022-11-28T08:28:12;24.50;;;12.80;;
23498;SDS011;11926;48.120;11.562;2022-11-28T08:31:08;21.27;;;12.38;;
23498;SDS011;11926;48.120;11.562;2022-11-28T08:33:57;23.00;;;13.00;;
23498;SDS011;11926;48.120;11.562;2022-11-28T08:36:46;22.40;;;13.02;;
23498;SDS011;11926;48.120;11.562;2022-11-28T08:39:34;23.60;;;13.50;;
23498;SDS011;11926;48.120;11.562;2022-11-28T08:42:22;22.80;;;13.15;;
23498;SDS011;11926;48.120;11.562;2022-11-28T08:45:10;20.20;;;12.18;;
23498;SDS011;11926;48.120;11.562;2022-11-28T08:47:59;21.08;;;11.98;;
23498;SDS011;11926;48.120;11.562;2022-11-28T08:50:46;22.05;;;13.25;;
23498;SDS011;11926;48.120;11.562;2022-11-28T08:53:34;21.52;;;12.80;;
23498;SDS011;11926;48.120;11.562;2022-11-28T08:56:21;24.00;;;12.95;;
23498;SDS011;11926;48.120;11.562;2022-11-28T08:59:09;20.88;;;12.23;;
23498;SDS011;11926;48.120;11.562;2022-11-28T09:01:57;20.83;;;12.38;;
23498;SDS011;11926;48.120;11.562;2022-11-28T09:04:45;18.35;;;11.07;;
23498;SDS011;11926;48.120;11.562;2022-11-28T09:07:33;18.90;;;11.77;;
23498;SDS011;11926;48.120;11.562;2022-11-28T09:10:20;20.65;;;12.68;;
23498;SDS011;11926;48.120;11.562;2022-11-28T09:13:09;18.75;;;11.02;;
23498;SDS011;11926;48.120;11.562;2022-11-28T09:15:57;21.38;;;11.75;;
23498;SDS011;11926;48.120;11.562;2022-11-28T09:18:45;23.48;;;12.05;;
23498;SDS011;11926;48.120;11.562;2022-11-28T09:21:34;19.05;;;11.23;;
23498;SDS011;11926;48.120;11.562;2022-11-28T09:24:22;22.33;;;12.15;;
23498;SDS011;11926;48.120;11.562;2022-11-28T09:27:10;23.65;;;12.38;;
23498;SDS011;11926;48.120;11.562;2022-11-28T09:29:57;18.95;;;10.85;;
23498;SDS011;11926;48.120;11.562;2022-11-28T09:32:46;18.00;;;10.55;;
23498;SDS011;11926;48.120;11.562;2022-11-28T09:35:36;20.23;;;11.50;;
23498;SDS011;11926;48.120;11.562;2022-11-28T09:38:26;21.92;;;11.30;;
23498;SDS011;11926;48.120;11.562;2022-11-28T09:41:25;17.33;;;11.63;;
23498;SDS011;11926;48.120;11.562;2022-11-28T09:47:18;20.92;;;12.02;;
23498;SDS011;11926;48.120;11.562;2022-11-28T09:50:14;16.48;;;10.38;;
23498;SDS011;11926;48.120;11.562;2022-11-28T09:53:10;18.88;;;10.95;;
23498;SDS011;11926;48.120;11.562;2022-11-28T09:56:08;18.55;;;11.63;;
23498;SDS011;11926;48.120;11.562;2022-11-28T09:59:00;15.20;;;9.60;;
23498;SDS011;11926;48.120;11.562;2022-11-28T10:01:53;20.25;;;10.98;;
23498;SDS011;11926;48.120;11.562;2022-11-28T10:04:54;21.60;;;11.15;;
23498;SDS011;11926;48.120;11.562;2022-11-28T10:07:59;19.55;;;11.02;;
23498;SDS011;11926;48.120;11.562;2022-11-28T10:11:01;18.83;;;11.05;;
23498;SDS011;11926;48.120;11.562;2022-11-28T10:14:00;20.20;;;11.48;;
23498;SDS011;11926;48.120;11.562;2022-11-28T10:16:57;24.25;;;11.55;;
23498;SDS011;11926;48.120;11.562;2022-11-28T10:19:59;23.30;;;12.38;;
23498;SDS011;11926;48.120;11.562;2022-11-28T10:22:54;16.67;;;10.82;;
23498;SDS011;11926;48.120;11.562;2022-11-28T10:25:47;19.67;;;11.10;;
23498;SDS011;11926;48.120;11.562;2022-11-28T10:28:44;20.63;;;11.95;;
23498;SDS011;11926;48.120;11.562;2022-11-28T10:31:39;20.25;;;10.52;;
23498;SDS011;11926;48.120;11.562;2022-11-28T10:34:33;19.67;;;11.23;;
23498;SDS011;11926;48.120;11.562;2022-11-28T10:37:28;18.73;;;11.02;;
23498;SDS011;11926;48.120;11.562;2022-11-28T10:40:28;17.80;;;11.32;;
23498;SDS011;11926;48.120;11.562;2022-11-28T10:43:28;17.52;;;11.35;;
23498;SDS011;11926;48.120;11.562;2022-11-28T10:46:30;18.05;;;10.65;;
23498;SDS011;11926;48.120;11.562;2022-11-28T10:49:39;22.08;;;11.57;;
23498;SDS011;11926;48.120;11.562;2022-11-28T10:52:41;21.58;;;11.25;;
23498;SDS011;11926;48.120;11.562;2022-11-28T10:55:39;17.95;;;10.27;;
23498;SDS011;11926;48.120;11.562;2022-11-28T10:58:34;17.42;;;11.25;;
23498;SDS011;11926;48.120;11.562;2022-11-28T11:01:37;21.33;;;10.52;;
23498;SDS011;11926;48.120;11.562;2022-11-28T11:04:39;17.65;;;10.02;;
23498;SDS011;11926;48.120;11.562;2022-11-28T11:07:34;21.45;;;10.60;;
23498;SDS011;11926;48.120;11.562;2022-11-28T11:10:24;27.13;;;11.68;;
23498;SDS011;11926;48.120;11.562;2022-11-28T11:13:20;15.98;;;9.48;;
23498;SDS011;11926;48.120;11.562;2022-11-28T11:16:13;18.75;;;9.63;;
23498;SDS011;11926;48.120;11.562;2022-11-28T11:19:03;17.17;;;10.40;;
23498;SDS011;11926;48.120;11.562;2022-11-28T11:21:59;14.13;;;9.25;;
23498;SDS011;11926;48.120;11.562;2022-11-28T11:25:03;14.52;;;9.32;;
23498;SDS011;11926;48.120;11.562;2022-11-28T11:28:02;16.30;;;9.75;;
23498;SDS011;11926;48.120;11.562;2022-11-28T11:30:56;15.85;;;8.82;;
23498;SDS011;11926;48.120;11.562;2022-11-28T11:33:48;18.08;;;10.07;;
23498;SDS011;11926;48.120;11.562;2022-11-28T11:36:51;19.98;;;9.60;;
23498;SDS011;11926;48.120;11.562;2022-11-28T11:40:17;19.80;;;10.27;;
23498;SDS011;11926;48.120;11.562;2022-11-28T11:46:17;16.27;;;9.98;;
23498;SDS011;11926;48.120;11.562;2022-11-28T11:49:09;17.42;;;9.75;;
23498;SDS011;11926;48.120;11.562;2022-11-28T11:52:20;17.52;;;9.65;;
23498;SDS011;11926;48.120;11.562;2022-11-28T11:55:10;20.50;;;11.02;;
23498;SDS011;11926;48.120;11.562;2022-11-28T11:58:00;17.98;;;10.13;;
23498;SDS011;11926;48.120;11.562;2022-11-28T12:00:50;16.63;;;9.60;;
23498;SDS011;11926;48.120;11.562;2022-11-28T12:03:41;17.27;;;10.18;;
23498;SDS011;11926;48.120;11.562;2022-11-28T12:06:39;16.23;;;9.98;;
23498;SDS011;11926;48.120;11.562;2022-11-28T12:09:37;16.77;;;9.38;;
23498;SDS011;11926;48.120;11.562;2022-11-28T12:12:30;18.63;;;9.88;;
23498;SDS011;11926;48.120;11.562;2022-11-28T12:15:24;18.40;;;9.57;;
23498;SDS011;11926;48.120;11.562;2022-11-28T12:18:21;16.63;;;9.82;;
23498;SDS011;11926;48.120;11.562;2022-11-28T12:21:20;16.90;;;9.85;;
23498;SDS011;11926;48.120;11.562;2022-11-28T12:24:18;17.30;;;9.05;;
23498;SDS011;11926;48.120;11.562;2022-11-28T12:27:15;18.05;;;9.20;;
23498;SDS011;11926;48.120;11.562;2022-11-28T12:30:19;14.60;;;8.95;;
23498;SDS011;11926;48.120;11.562;2022-11-28T12:33:18;18.50;;;9.63;;
23498;SDS011;11926;48.120;11.562;2022-11-28T12:36:15;24.73;;;10.55;;
23498;SDS011;11926;48.120;11.562;2022-11-28T12:39:19;19.67;;;10.90;;
23498;SDS011;11926;48.120;11.562;2022-11-28T12:42:21;16.27;;;9.32;;
23498;SDS011;11926;48.120;11.562;2022-11-28T12:45:22;16.67;;;8.77;;
23498;SDS011;11926;48.120;11.562;2022-11-28T12:48:22;13.18;;;7.72;;
23498;SDS011;11926;48.120;11.562;2022-11-28T12:51:20;18.65;;;8.88;;
23498;SDS011;11926;48.120;11.562;2022-11-28T12:54:29;18.52;;;8.38;;
23498;SDS011;11926;48.120;11.562;2022-11-28T12:57:41;14.60;;;7.68;;
23498;SDS011;11926;48.120;11.562;2022-11-28T13:00:46;19.92;;;8.32;;
23498;SDS011;11926;48.120;11.562;2022-11-28T13:03:55;14.85;;;7.03;;
23498;SDS011;11926;48.120;11.562;2022-11-28T13:06:53;14.98;;;8.68;;
23498;SDS011;11926;48.120;11.562;2022-11-28T13:09:53;14.48;;;8.48;;
23498;SDS011;11926;48.120;11.562;2022-11-28T13:12:50;15.00;;;8.55;;
23498;SDS011;11926;48.120;11.562;2022-11-28T13:15:46;18.63;;;7.85;;
23498;SDS011;11926;48.120;11.562;2022-11-28T13:18:43;12.45;;;8.23;;
23498;SDS011;11926;48.120;11.562;2022-11-28T13:21:35;15.90;;;8.85;;
23498;SDS011;11926;48.120;11.562;2022-11-28T13:24:32;13.32;;;7.97;;
23498;SDS011;11926;48.120;11.562;2022-11-28T13:27:27;13.45;;;8.43;;
23498;SDS011;11926;48.120;11.562;2022-11-28T13:30:22;15.30;;;8.52;;
23498;SDS011;11926;48.120;11.562;2022-11-28T13:33:21;19.58;;;8.75;;
23498;SDS011;11926;48.120;11.562;2022-11-28T13:36:20;14.75;;;8.48;;
23498;SDS011;11926;48.120;11.562;2022-11-28T13:39:38;18.15;;;9.27;;
23498;SDS011;11926;48.120;11.562;2022-11-28T13:42:33;13.40;;;8.30;;
23498;SDS011;11926;48.120;11.562;2022-11-28T13:45:45;18.60;;;9.83;;
23498;SDS011;11926;48.120;11.562;2022-11-28T14:03:49;19.80;;;9.82;;
23498;SDS011;11926;48.120;11.562;2022-11-28T14:06:40;19.45;;;9.57;;
23498;SDS011;11926;48.120;11.562;2022-11-28T14:09:32;19.85;;;9.82;;
23498;SDS011;11926;48.120;11.562;2022-11-28T14:12:32;18.90;;;9.30;;
23498;SDS011;11926;48.120;11.562;2022-11-28T14:15:29;19.30;;;9.27;;
23498;SDS011;11926;48.120;11.562;2022-11-28T14:18:28;20.73;;;9.45;;
23498;SDS011;11926;48.120;11.562;2022-11-28T14:21:46;17.90;;;9.40;;
23498;SDS011;11926;48.120;11.562;2022-11-28T14:24:48;19.30;;;9.30;;
23498;SDS011;11926;48.120;11.562;2022-11-28T14:27:45;16.30;;;9.45;;
23498;SDS011;11926;48.120;11.562;2022-11-28T14:30:42;18.33;;;8.80;;
23498;SDS011;11926;48.120;11.562;2022-11-28T14:33:33;16.52;;;8.80;;
23498;SDS011;11926;48.120;11.562;2022-11-28T14:36:25;15.15;;;7.60;;
23498;SDS011;11926;48.120;11.562;2022-11-28T14:45:42;21.20;;;8.75;;
23498;SDS011;11926;48.120;11.562;2022-11-28T14:48:30;17.85;;;9.18;;
23498;SDS011;11926;48.120;11.562;2022-11-28T14:51:18;17.65;;;8.82;;
23498;SDS011;11926;48.120;11.562;2022-11-28T14:57:52;18.58;;;9.77;;
23498;SDS011;11926;48.120;11.562;2022-11-28T15:00:43;16.13;;;8.65;;
23498;SDS011;11926;48.120;11.562;2022-11-28T15:03:37;16.23;;;8.20;;
23498;SDS011;11926;48.120;11.562;2022-11-28T15:06:36;16.67;;;8.40;;
23498;SDS011;11926;48.120;11.562;2022-11-28T15:09:25;18.90;;;8.63;;
23498;SDS011;11926;48.120;11.562;2022-11-28T15:12:20;19.17;;;8.52;;
23498;SDS011;11926;48.120;11.562;2022-11-28T15:15:12;15.25;;;7.60;;
23498;SDS011;11926;48.120;11.562;2022-11-28T15:18:02;12.93;;;7.05;;
23498;SDS011;11926;48.120;11.562;2022-11-28T15:20:50;12.20;;;6.97;;
23498;SDS011;11926;48.120;11.562;2022-11-28T15:23:44;13.38;;;7.53;;
23498;SDS011;11926;48.120;11.562;2022-11-28T15:26:32;12.10;;;7.63;;
23498;SDS011;11926;48.120;11.562;2022-11-28T15:29:20;12.25;;;7.57;;
23498;SDS011;11926;48.120;11.562;2022-11-28T15:32:11;14.40;;;7.63;;
23498;SDS011;11926;48.120;11.562;2022-11-28T15:35:02;14.32;;;7.38;;
23498;SDS011;11926;48.120;11.562;2022-11-28T15:37:57;13.38;;;7.68;;
23498;SDS011;11926;48.120;11.562;2022-11-28T15:40:48;14.98;;;7.32;;
23498;SDS011;11926;48.120;11.562;2022-11-28T15:43:36;13.85;;;7.20;;
23498;SDS011;11926;48.120;11.562;2022-11-28T15:46:29;10.90;;;6.53;;
23498;SDS011;11926;48.120;11.562;2022-11-28T15:49:21;14.88;;;6.85;;
23498;SDS011;11926;48.120;11.562;2022-11-28T15:52:13;14.25;;;7.05;;
23498;SDS011;11926;48.120;11.562;2022-11-28T15:55:12;13.77;;;7.18;;
23498;SDS011;11926;48.120;11.562;2022-11-28T16:01:07;15.18;;;7.05;;
23498;SDS011;11926;48.120;11.562;2022-11-28T16:04:01;10.48;;;6.60;;
23498;SDS011;11926;48.120;11.562;2022-11-28T16:06:52;10.02;;;6.47;;
23498;SDS011;11926;48.120;11.562;2022-11-28T16:09:49;12.93;;;6.80;;
23498;SDS011;11926;48.120;11.562;2022-11-28T16:12:42;13.20;;;6.40;;
23498;SDS011;11926;48.120;11.562;2022-11-28T16:15:31;9.65;;;5.75;;
23498;SDS011;11926;48.120;11.562;2022-11-28T16:18:18;15.63;;;6.85;;
23498;SDS011;11926;48.120;11.562;2022-11-28T16:21:05;13.88;;;6.05;;
23498;SDS011;11926;48.120;11.562;2022-11-28T16:23:58;18.67;;;7.00;;
23498;SDS011;11926;48.120;11.562;2022-11-28T16:26:52;12.75;;;6.10;;
23498;SDS011;11926;48.120;11.562;2022-11-28T16:29:42;11.82;;;6.25;;
23498;SDS011;11926;48.120;11.562;2022-11-28T16:32:35;10.30;;;6.47;;
23498;SDS011;11926;48.120;11.562;2022-11-28T16:35:24;18.70;;;7.40;;
23498;SDS011;11926;48.120;11.562;2022-11-28T16:38:14;15.23;;;8.20;;
23498;SDS011;11926;48.120;11.562;2022-11-28T16:41:04;15.07;;;7.07;;
23498;SDS011;11926;48.120;11.562;2022-11-28T16:43:52;15.10;;;8.20;;
23498;SDS011;11926;48.120;11.562;2022-11-28T16:46:47;12.65;;;7.30;;
23498;SDS011;11926;48.120;11.562;2022-11-28T16:49:38;22.65;;;8.05;;
23498;SDS011;11926;48.120;11.562;2022-11-28T16:55:36;17.27;;;8.27;;
23498;SDS011;11926;48.120;11.562;2022-11-28T16:58:26;16.77;;;7.57;;
23498;SDS011;11926;48.120;11.562;2022-11-28T17:01:13;15.35;;;7.75;;
23498;SDS011;11926;48.120;11.562;2022-11-28T17:04:00;16.27;;;7.85;;
23498;SDS011;11926;48.120;11.562;2022-11-28T17:06:50;13.13;;;7.57;;
23498;SDS011;11926;48.120;11.562;2022-11-28T17:09:40;15.70;;;7.32;;
23498;SDS011;11926;48.120;11.562;2022-11-28T17:12:28;15.90;;;8.00;;
23498;SDS011;11926;48.120;11.562;2022-11-28T17:15:19;12.57;;;7.90;;
23498;SDS011;11926;48.120;11.562;2022-11-28T17:18:08;13.02;;;7.55;;
23498;SDS011;11926;48.120;11.562;2022-11-28T17:20:55;14.23;;;7.03;;
23498;SDS011;11926;48.120;11.562;2022-11-28T17:23:43;13.80;;;7.88;;
23498;SDS011;11926;48.120;11.562;2022-11-28T17:26:31;16.00;;;8.10;;
23498;SDS011;11926;48.120;11.562;2022-11-28T17:29:18;14.60;;;7.25;;
23498;SDS011;11926;48.120;11.562;2022-11-28T17:32:09;11.52;;;7.13;;
23498;SDS011;11926;48.120;11.562;2022-11-28T17:34:58;15.10;;;7.93;;